createdAt,value
2022-10-05T00:00:48.654Z,99160.66
2022-10-05T00:03:15.226Z,99153.78
2022-10-05T00:05:42.226Z,99148.66
2022-10-05T00:08:18.794Z,99149.69
2022-10-05T00:10:46.623Z,99151.47
2022-10-05T00:13:21.095Z,99156.03
2022-10-05T00:15:48.893Z,99161.31
2022-10-05T00:18:18.923Z,99154.56
2022-10-05T00:20:47.165Z,99154.56
2022-10-05T00:23:21.527Z,99153.78
2022-10-05T00:25:48.248Z,99144.31
2022-10-05T00:28:30.840Z,99147.03
2022-10-05T00:30:59.115Z,99149.84
2022-10-05T00:33:27.348Z,99149.97
2022-10-05T00:35:55.107Z,99150.97
2022-10-05T00:38:21.916Z,99149.31
2022-10-05T00:40:57.500Z,99147.56
2022-10-05T00:43:57.508Z,99148.53
2022-10-05T00:46:31.074Z,99152.22
2022-10-05T00:49:03.570Z,99157.53
2022-10-05T00:51:35.891Z,99152.50
2022-10-05T00:54:24.456Z,99150.00
2022-10-05T00:57:21.734Z,99151.88
2022-10-05T01:00:05.701Z,99156.50
2022-10-05T01:02:44.601Z,99154.84
2022-10-05T01:05:37.342Z,99159.38
2022-10-05T01:08:12.997Z,99157.56
2022-10-05T01:10:58.116Z,99155.72
2022-10-05T01:14:10.427Z,99161.78
2022-10-05T01:16:52.864Z,99160.09
2022-10-05T01:19:31.508Z,99162.59
2022-10-05T01:22:19.269Z,99159.88
2022-10-05T01:25:07.414Z,99158.03
2022-10-05T01:27:48.818Z,99153.53
2022-10-05T01:30:24.766Z,99157.72
2022-10-05T01:33:01.956Z,99147.00
2022-10-05T01:35:49.480Z,99134.69
2022-10-05T01:38:56.388Z,99144.16
2022-10-05T01:41:55.861Z,99132.63
2022-10-05T01:44:30.345Z,99134.34
2022-10-05T01:47:06.858Z,99128.97
2022-10-05T01:49:36.061Z,99120.00
2022-10-05T01:52:13.716Z,99117.19
2022-10-05T01:54:40.218Z,99115.50
2022-10-05T01:57:28.215Z,99106.59
2022-10-05T02:00:06.251Z,99103.88
2022-10-05T02:02:38.306Z,99101.94
2022-10-05T02:05:10.975Z,99101.81
2022-10-05T02:07:54.322Z,99095.66
2022-10-05T02:10:35.850Z,99097.16
2022-10-05T02:13:29.979Z,99094.53
2022-10-05T02:16:20.641Z,99089.94
2022-10-05T02:18:53.966Z,99082.88
2022-10-05T02:21:22.209Z,99079.31
2022-10-05T02:23:52.659Z,99076.66
2022-10-05T02:26:19.751Z,99078.34
2022-10-05T02:29:02.502Z,99083.78
2022-10-05T02:31:37.368Z,99079.41
2022-10-05T02:34:28.449Z,99074.81
2022-10-05T02:37:17.236Z,99080.84
2022-10-05T02:39:52.860Z,99088.50
2022-10-05T02:42:28.399Z,99085.00
2022-10-05T02:44:58.373Z,99085.00
2022-10-05T02:48:03.423Z,99079.78
2022-10-05T02:50:34.557Z,99084.16
2022-10-05T02:53:07.110Z,99083.44
2022-10-05T02:56:11.259Z,99087.72
2022-10-05T02:59:28.548Z,99089.31
2022-10-05T03:02:03.744Z,99090.38
2022-10-05T03:04:36.447Z,99093.16
2022-10-05T03:07:15.595Z,99080.06
2022-10-05T03:09:49.615Z,99088.63
2022-10-05T03:12:28.371Z,99094.56
2022-10-05T03:14:57.852Z,99089.28
2022-10-05T03:17:32.235Z,99090.81
2022-10-05T03:20:17.458Z,99090.81
2022-10-05T03:22:51.675Z,99091.56
2022-10-05T03:25:52.068Z,99089.66
2022-10-05T03:28:24.722Z,99073.69
2022-10-05T03:31:00.474Z,99076.31
2022-10-05T03:33:48.896Z,99069.19
2022-10-05T03:36:27.552Z,99074.28
2022-10-05T03:39:24.125Z,99074.22
2022-10-05T03:42:00.454Z,99075.00
2022-10-05T03:44:55.812Z,99080.94
2022-10-05T03:47:39.845Z,99080.88
2022-10-05T03:50:23.581Z,99074.84
2022-10-05T03:53:00.030Z,99078.59
2022-10-05T03:55:54.550Z,99074.22
2022-10-05T03:58:29.393Z,99081.34
2022-10-05T04:01:04.571Z,99085.63
2022-10-05T04:03:41.294Z,99076.69
2022-10-05T04:06:17.029Z,99077.47
2022-10-05T04:09:00.457Z,99079.09
2022-10-05T04:11:28.997Z,99067.66
2022-10-05T04:14:07.299Z,99073.72
2022-10-05T04:17:14.382Z,99064.00
2022-10-05T04:20:03.279Z,99069.03
2022-10-05T04:22:36.799Z,99064.63
2022-10-05T04:25:29.683Z,99062.94
2022-10-05T04:28:14.164Z,99064.72
2022-10-05T04:30:44.251Z,99074.22
2022-10-05T04:33:16.091Z,99067.13
2022-10-05T04:35:54.674Z,99061.81
2022-10-05T04:38:27.206Z,99063.44
2022-10-05T04:40:56.646Z,99063.28
2022-10-05T04:43:57.227Z,99064.00
2022-10-05T04:46:54.848Z,99057.28
2022-10-05T04:49:42.798Z,99062.47
2022-10-05T04:52:40.427Z,99055.44
2022-10-05T04:56:10.951Z,99068.34
2022-10-05T04:58:57.126Z,99070.03
2022-10-05T05:01:35.742Z,99070.75
2022-10-05T05:04:24.016Z,99083.84
2022-10-05T05:07:12.381Z,99075.91
2022-10-05T05:09:58.948Z,99073.13
2022-10-05T05:12:46.884Z,99078.31
2022-10-05T05:15:18.725Z,99073.00
2022-10-05T05:17:50.593Z,99073.06
2022-10-05T05:20:51.259Z,99066.84
2022-10-05T05:23:39.090Z,99071.97
2022-10-05T05:26:23.811Z,99072.84
2022-10-05T05:29:23.397Z,99079.63
2022-10-05T05:31:53.831Z,99080.50
2022-10-05T05:34:23.212Z,99084.03
2022-10-05T05:37:11.781Z,99086.03
2022-10-05T05:39:57.254Z,99085.09
2022-10-05T05:42:38.133Z,99079.69
2022-10-05T05:45:26.280Z,99084.81
2022-10-05T05:47:54.868Z,99087.34
2022-10-05T05:50:34.526Z,99078.41
2022-10-05T05:53:10.028Z,99080.97
2022-10-05T05:55:42.431Z,99083.44
2022-10-05T05:58:18.096Z,99083.38
2022-10-05T06:00:50.971Z,99084.06
2022-10-05T06:03:39.658Z,99081.31
2022-10-05T06:06:16.152Z,99087.25
2022-10-05T06:08:47.758Z,99085.38
2022-10-05T06:11:23.020Z,99089.59
2022-10-05T06:13:50.627Z,99093.03
2022-10-05T06:16:40.414Z,99094.69
2022-10-05T06:19:23.314Z,99098.94
2022-10-05T06:22:01.331Z,99092.66
2022-10-05T06:24:44.682Z,99100.63
2022-10-05T06:27:35.498Z,99115.31
2022-10-05T06:30:07.591Z,99107.50
2022-10-05T06:33:08.082Z,99116.78
2022-10-05T06:35:56.582Z,99114.00
2022-10-05T06:38:51.059Z,99119.09
2022-10-05T06:41:52.777Z,99121.50
2022-10-05T06:44:57.954Z,99124.03
2022-10-05T06:47:51.871Z,99125.63
2022-10-05T06:50:42.504Z,99122.75
2022-10-05T06:53:35.521Z,99122.75
2022-10-05T06:56:10.221Z,99124.38
2022-10-05T06:58:48.258Z,99126.94
2022-10-05T07:01:48.085Z,99130.19
2022-10-05T07:04:37.384Z,99126.56
2022-10-05T07:07:23.285Z,99127.00
2022-10-05T07:10:12.988Z,99119.69
2022-10-05T07:13:13.715Z,99127.34
2022-10-05T07:16:07.543Z,99124.16
2022-10-05T07:18:44.650Z,99123.91
2022-10-05T07:21:30.028Z,99121.28
2022-10-05T07:24:12.611Z,99115.63
2022-10-05T07:26:39.145Z,99119.78
2022-10-05T07:29:24.388Z,99120.50
2022-10-05T07:32:14.090Z,99124.66
2022-10-05T07:34:46.574Z,99126.09
2022-10-05T07:37:39.317Z,99128.56
2022-10-05T07:40:24.242Z,99136.22
2022-10-05T07:43:15.842Z,99129.00
2022-10-05T07:45:51.641Z,99131.38
2022-10-05T07:48:26.351Z,99125.13
2022-10-05T07:50:59.776Z,99125.88
2022-10-05T07:53:40.572Z,99125.66
2022-10-05T07:56:34.030Z,99127.75
2022-10-05T07:59:21.249Z,99127.75
2022-10-05T08:01:54.675Z,99136.28
2022-10-05T08:04:30.783Z,99130.84
2022-10-05T08:07:05.149Z,99128.63
2022-10-05T08:09:56.663Z,99134.34
2022-10-05T08:12:35.847Z,99129.06
2022-10-05T08:15:10.063Z,99138.41
2022-10-05T08:18:16.248Z,99132.03
2022-10-05T08:20:48.200Z,99132.94
2022-10-05T08:23:31.081Z,99127.63
2022-10-05T08:26:28.224Z,99133.63
2022-10-05T08:29:24.207Z,99118.41
2022-10-05T08:31:57.780Z,99121.56
2022-10-05T08:34:49.643Z,99123.94
2022-10-05T08:37:27.482Z,99119.97
2022-10-05T08:40:22.662Z,99117.06
2022-10-05T08:43:35.504Z,99125.28
2022-10-05T08:46:32.924Z,99124.38
2022-10-05T08:49:50.699Z,99125.97
2022-10-05T08:52:29.179Z,99132.84
2022-10-05T08:55:02.043Z,99123.00
2022-10-05T08:58:03.172Z,99127.97
2022-10-05T09:00:52.207Z,99125.75
2022-10-05T09:03:43.273Z,99117.19
2022-10-05T09:06:33.559Z,99120.31
2022-10-05T09:09:14.239Z,99120.97
2022-10-05T09:11:53.030Z,99114.84
2022-10-05T09:14:39.363Z,99124.16
2022-10-05T09:18:04.556Z,99114.09
2022-10-05T09:20:53.179Z,99118.72
2022-10-05T09:23:37.277Z,99125.28
2022-10-05T09:26:40.885Z,99123.31
2022-10-05T09:29:38.420Z,99116.91
2022-10-05T09:32:36.068Z,99118.50
2022-10-05T09:35:27.558Z,99113.03
2022-10-05T09:38:09.127Z,99113.69
2022-10-05T09:40:45.073Z,99114.34
2022-10-05T09:44:08.819Z,99106.53
2022-10-05T09:47:04.188Z,99111.59
2022-10-05T09:49:47.785Z,99104.56
2022-10-05T09:52:42.029Z,99107.53
2022-10-05T09:56:00.284Z,99104.88
2022-10-05T09:58:54.543Z,99107.22
2022-10-05T10:01:48.826Z,99101.47
2022-10-05T10:04:24.833Z,99097.47
2022-10-05T10:07:21.109Z,99106.91
2022-10-05T10:10:32.429Z,99105.03
2022-10-05T10:13:33.018Z,99100.94
2022-10-05T10:16:57.032Z,99104.78
2022-10-05T10:19:29.315Z,99100.09
2022-10-05T10:22:05.167Z,99107.44
2022-10-05T10:25:00.828Z,99101.00
2022-10-05T10:27:54.321Z,99091.59
2022-10-05T10:30:36.607Z,99091.09
2022-10-05T10:33:11.355Z,99087.94
2022-10-05T10:35:44.831Z,99089.72
2022-10-05T10:38:33.261Z,99084.75
2022-10-05T10:41:25.997Z,99089.44
2022-10-05T10:44:34.270Z,99075.75
2022-10-05T10:47:19.519Z,99072.97
2022-10-05T10:50:07.548Z,99074.78
2022-10-05T10:53:02.860Z,99067.22
2022-10-05T10:55:42.375Z,99062.81
2022-10-05T11:01:07.820Z,99061.88
2022-10-05T11:03:53.243Z,99060.50
2022-10-05T11:06:43.959Z,99065.06
2022-10-05T11:09:16.328Z,99058.00
2022-10-05T11:12:01.372Z,99059.97
2022-10-05T11:15:05.808Z,99062.31
2022-10-05T11:18:01.698Z,99064.75
2022-10-05T11:20:56.616Z,99063.66
2022-10-05T11:23:23.117Z,99068.28
2022-10-05T11:26:32.444Z,99059.63
2022-10-05T11:29:20.484Z,99061.56
2022-10-05T11:32:39.343Z,99056.03
2022-10-05T11:35:27.587Z,99055.41
2022-10-05T11:38:25.669Z,99045.16
2022-10-05T11:41:02.250Z,99052.16
2022-10-05T11:43:48.372Z,99045.47
2022-10-05T11:46:35.903Z,99038.47
2022-10-05T11:49:41.310Z,99041.69
2022-10-05T11:52:26.840Z,99038.59
2022-10-05T11:55:10.991Z,99026.84
2022-10-05T11:57:48.077Z,99023.28
2022-10-05T12:00:21.065Z,99014.84
2022-10-05T12:03:19.758Z,99019.59
2022-10-05T12:05:58.479Z,99010.47
2022-10-05T12:08:51.878Z,99005.22
2022-10-05T12:11:58.009Z,99000.03
2022-10-05T12:14:33.487Z,98992.50
2022-10-05T12:17:18.739Z,98991.94
2022-10-05T12:19:55.602Z,98989.88
2022-10-05T12:22:31.680Z,98982.22
2022-10-05T12:25:02.848Z,98974.56
2022-10-05T12:27:38.774Z,98963.13
2022-10-05T12:30:17.814Z,98968.34
2022-10-05T12:32:56.953Z,98957.06
2022-10-05T12:35:49.297Z,98952.66
2022-10-05T12:38:34.605Z,98955.50
2022-10-05T12:41:17.867Z,98939.00
2022-10-05T12:43:55.083Z,98937.97
2022-10-05T12:46:39.449Z,98933.56
2022-10-05T12:49:23.854Z,98928.66
2022-10-05T12:52:01.055Z,98930.44
2022-10-05T12:54:56.140Z,98928.41
2022-10-05T12:57:56.371Z,98926.38
2022-10-05T13:00:23.491Z,98915.31
2022-10-05T13:03:03.944Z,98923.22
2022-10-05T13:05:45.747Z,98917.66
2022-10-05T13:08:21.237Z,98927.94
2022-10-05T13:11:16.910Z,98926.41
2022-10-05T13:14:07.451Z,98919.94
2022-10-05T13:16:34.029Z,98913.31
2022-10-05T13:19:19.540Z,98911.13
2022-10-05T13:21:46.135Z,98916.97
2022-10-05T13:24:23.448Z,98909.22
2022-10-05T13:26:56.470Z,98908.66
2022-10-05T13:29:31.240Z,98914.13
2022-10-05T13:32:03.284Z,98916.34
2022-10-05T13:34:45.103Z,98902.66
2022-10-05T13:37:17.386Z,98896.38
2022-10-05T13:40:13.470Z,98895.06
2022-10-05T13:42:57.976Z,98898.41
2022-10-05T13:45:29.869Z,98895.41
2022-10-05T13:48:05.639Z,98895.94
2022-10-05T13:50:39.346Z,98895.75
2022-10-05T13:53:35.443Z,98890.72
2022-10-05T13:56:26.091Z,98887.03
2022-10-05T13:59:33.037Z,98883.00
2022-10-05T14:02:08.817Z,98886.84
2022-10-05T14:04:48.577Z,98880.09
2022-10-05T14:07:30.088Z,98865.19
2022-10-05T14:09:57.498Z,98875.41
2022-10-05T14:12:25.770Z,98866.25
2022-10-05T14:14:57.356Z,98867.25
2022-10-05T14:17:33.374Z,98866.41
2022-10-05T14:20:03.031Z,98864.59
2022-10-05T14:22:29.648Z,98866.25
2022-10-05T14:25:13.897Z,98857.53
2022-10-05T14:27:59.301Z,98857.84
2022-10-05T14:30:28.604Z,98859.34
2022-10-05T14:33:08.324Z,98854.47
2022-10-05T14:35:51.400Z,98854.75
2022-10-05T14:38:26.381Z,98850.44
2022-10-05T14:41:25.412Z,98852.13
2022-10-05T14:44:15.368Z,98856.16
2022-10-05T14:46:58.830Z,98849.44
2022-10-05T14:49:28.027Z,98846.72
2022-10-05T14:51:55.740Z,98848.06
2022-10-05T14:54:27.971Z,98849.88
2022-10-05T14:57:06.741Z,98842.09
2022-10-05T15:00:05.753Z,98854.19
2022-10-05T15:02:51.429Z,98855.19
2022-10-05T15:05:20.983Z,98859.66
2022-10-05T15:07:49.825Z,98859.59
2022-10-05T15:10:32.550Z,98861.69
2022-10-05T15:13:11.478Z,98862.53
2022-10-05T15:15:49.819Z,98852.78
2022-10-05T15:18:19.668Z,98860.34
2022-10-05T15:21:21.601Z,98861.47
2022-10-05T15:24:08.534Z,98862.06
2022-10-05T15:26:55.665Z,98858.97
2022-10-05T15:29:38.144Z,98861.59
2022-10-05T15:32:14.728Z,98867.25
2022-10-05T15:34:52.882Z,98873.91
2022-10-05T15:37:31.980Z,98864.97
2022-10-05T15:40:04.642Z,98869.06
2022-10-05T15:42:39.550Z,98885.41
2022-10-05T15:45:24.021Z,98876.47
2022-10-05T15:48:02.091Z,98878.22
2022-10-05T15:50:36.476Z,98871.78
2022-10-05T15:53:15.252Z,98869.84
2022-10-05T15:55:50.184Z,98861.75
2022-10-05T15:58:31.372Z,98874.16
2022-10-05T16:01:07.982Z,98883.28
2022-10-05T16:04:15.893Z,98880.22
2022-10-05T16:07:11.747Z,98881.09
2022-10-05T16:10:01.419Z,98884.91
2022-10-05T16:12:34.060Z,98889.69
2022-10-05T16:15:17.712Z,98888.56
2022-10-05T16:18:06.181Z,98881.16
2022-10-05T16:20:57.058Z,98887.88
2022-10-05T16:24:23.042Z,98888.72
2022-10-05T16:27:00.628Z,98907.13
2022-10-05T16:29:38.294Z,98901.63
2022-10-05T16:32:16.590Z,98903.78
2022-10-05T16:35:20.963Z,98911.31
2022-10-05T16:37:53.556Z,98915.53
2022-10-05T16:40:37.222Z,98920.72
2022-10-05T16:43:28.570Z,98912.19
2022-10-05T16:46:13.175Z,98929.41
2022-10-05T16:49:17.459Z,98921.16
2022-10-05T16:52:06.565Z,98921.25
2022-10-05T16:54:46.873Z,98931.50
2022-10-05T16:57:22.214Z,98939.03
2022-10-05T17:00:10.852Z,98936.22
2022-10-05T17:02:43.371Z,98939.28
2022-10-05T17:05:28.370Z,98942.44
2022-10-05T17:08:08.588Z,98943.53
2022-10-05T17:10:48.566Z,98953.00
2022-10-05T17:13:39.476Z,98950.75
2022-10-05T17:16:35.410Z,98957.44
2022-10-05T17:19:23.343Z,98956.16
2022-10-05T17:22:01.678Z,98963.81
2022-10-05T17:24:46.875Z,98959.03
2022-10-05T17:27:35.429Z,98973.69
2022-10-05T17:30:36.052Z,98977.72
2022-10-05T17:33:19.678Z,98986.22
2022-10-05T17:36:06.232Z,98989.38
2022-10-05T17:38:35.530Z,98991.56
2022-10-05T17:41:14.494Z,98987.63
2022-10-05T17:43:41.644Z,98997.19
2022-10-05T17:46:12.304Z,98999.28
2022-10-05T17:48:54.334Z,99002.44
2022-10-05T17:51:48.578Z,99006.44
2022-10-05T17:54:41.114Z,99028.88
2022-10-05T17:57:07.584Z,99020.72
2022-10-05T17:59:46.143Z,99023.75
2022-10-05T18:02:40.839Z,99029.41
2022-10-05T18:05:14.568Z,99033.28
2022-10-05T18:07:48.698Z,99032.84
2022-10-05T18:10:29.656Z,99039.34
2022-10-05T18:12:59.193Z,99044.19
2022-10-05T18:15:25.672Z,99042.75
2022-10-05T18:18:00.943Z,99049.38
2022-10-05T18:20:32.039Z,99057.84
2022-10-05T18:23:09.376Z,99064.09
2022-10-05T18:26:07.369Z,99064.59
2022-10-05T18:28:46.283Z,99060.59
2022-10-05T18:31:39.115Z,99058.53
2022-10-05T18:34:09.010Z,99066.13
2022-10-05T18:36:59.843Z,99072.91
2022-10-05T18:39:38.455Z,99065.28
2022-10-05T18:42:27.401Z,99074.56
2022-10-05T18:45:21.837Z,99077.34
2022-10-05T18:47:54.270Z,99082.38
2022-10-05T18:50:38.302Z,99091.63
2022-10-05T18:53:13.763Z,99079.91
2022-10-05T18:55:55.582Z,99077.47
2022-10-05T18:58:28.602Z,99085.44
2022-10-05T19:01:03.517Z,99092.81
2022-10-05T19:04:12.599Z,99096.50
2022-10-05T19:07:18.425Z,99091.94
2022-10-05T19:10:00.156Z,99106.88
2022-10-05T19:12:41.422Z,99111.47
2022-10-05T19:15:36.205Z,99116.28
2022-10-05T19:18:18.610Z,99126.16
2022-10-05T19:20:52.860Z,99123.59
2022-10-05T19:23:48.710Z,99142.25
2022-10-05T19:26:30.396Z,99146.59
2022-10-05T19:29:15.795Z,99151.28
2022-10-05T19:31:55.088Z,99145.47
2022-10-05T19:34:45.757Z,99160.63
2022-10-05T19:37:31.495Z,99163.13
2022-10-05T19:40:24.378Z,99173.13
2022-10-05T19:43:12.219Z,99173.44
2022-10-05T19:46:19.028Z,99174.00
2022-10-05T19:48:48.850Z,99189.16
2022-10-05T19:51:29.341Z,99189.03
2022-10-05T19:54:25.813Z,99196.38
2022-10-05T19:56:54.346Z,99213.19
2022-10-05T19:59:25.308Z,99212.38
2022-10-05T20:01:53.017Z,99217.03
2022-10-05T20:04:40.824Z,99216.50
2022-10-05T20:07:14.022Z,99211.00
2022-10-05T20:09:58.252Z,99223.41
2022-10-05T20:12:51.344Z,99220.84
2022-10-05T20:15:41.756Z,99217.25
2022-10-05T20:19:00.910Z,99234.31
2022-10-05T20:21:49.901Z,99227.19
2022-10-05T20:24:25.677Z,99241.41
2022-10-05T20:27:16.065Z,99242.59
2022-10-05T20:29:44.702Z,99248.75
2022-10-05T20:32:13.721Z,99246.19
2022-10-05T20:34:42.565Z,99251.56
2022-10-05T20:37:11.515Z,99251.16
2022-10-05T20:39:38.811Z,99253.28
2022-10-05T20:42:07.384Z,99252.63
2022-10-05T20:44:34.542Z,99255.28
2022-10-05T20:47:01.505Z,99251.06
2022-10-05T20:49:32.189Z,99252.97
2022-10-05T20:51:59.283Z,99244.09
2022-10-05T20:54:28.066Z,99254.38
2022-10-05T20:56:55.710Z,99255.19
2022-10-05T20:59:23.798Z,99262.09
2022-10-05T21:01:50.708Z,99270.03
2022-10-05T21:04:22.945Z,99272.78
2022-10-05T21:06:49.656Z,99275.72
2022-10-05T21:09:19.751Z,99267.19
2022-10-05T21:11:48.133Z,99283.25
2022-10-05T21:14:14.867Z,99280.94
2022-10-05T21:16:41.842Z,99274.38
2022-10-05T21:19:09.837Z,99277.41
2022-10-05T21:21:36.967Z,99277.00
2022-10-05T21:24:03.975Z,99286.75
2022-10-05T21:26:31.107Z,99287.38
2022-10-05T21:28:58.426Z,99296.69
2022-10-05T21:31:26.049Z,99291.66
2022-10-05T21:33:53.147Z,99293.34
2022-10-05T21:36:23.819Z,99301.69
2022-10-05T21:38:52.690Z,99294.59
2022-10-05T21:41:20.263Z,99299.03
2022-10-05T21:43:46.876Z,99294.88
2022-10-05T21:46:20.192Z,99300.38
2022-10-05T21:48:47.919Z,99314.69
2022-10-05T21:51:16.919Z,99324.91
2022-10-05T21:53:59.352Z,99328.25
2022-10-05T21:56:31.277Z,99335.84
2022-10-05T21:58:59.331Z,99332.63
2022-10-05T22:01:25.990Z,99335.38
2022-10-05T22:03:52.648Z,99340.47
2022-10-05T22:06:19.323Z,99334.22
2022-10-05T22:08:46.004Z,99336.22
2022-10-05T22:11:15.596Z,99343.59
2022-10-05T22:13:48.065Z,99339.53
2022-10-05T22:16:15.746Z,99340.69
2022-10-05T22:18:43.119Z,99353.06
2022-10-05T22:21:12.098Z,99348.72
2022-10-05T22:23:40.745Z,99352.41
2022-10-05T22:26:09.603Z,99342.13
2022-10-05T22:28:37.488Z,99341.94
2022-10-05T22:31:06.490Z,99344.03
2022-10-05T22:33:33.149Z,99344.78
2022-10-05T22:36:00.719Z,99366.00
2022-10-05T22:38:28.021Z,99362.59
2022-10-05T22:40:54.683Z,99364.41
2022-10-05T22:43:21.406Z,99368.84
2022-10-05T22:45:47.983Z,99368.00
2022-10-05T22:48:15.730Z,99373.44
2022-10-05T22:50:46.597Z,99376.22
2022-10-05T22:53:14.062Z,99366.84
2022-10-05T22:55:40.944Z,99369.56
2022-10-05T22:58:07.496Z,99372.41
2022-10-05T23:00:56.437Z,99377.81
2022-10-05T23:03:20.552Z,99378.09
2022-10-05T23:05:47.145Z,99374.00
2022-10-05T23:08:13.641Z,99381.19
2022-10-05T23:10:40.250Z,99374.44
2022-10-05T23:13:08.708Z,99374.44
2022-10-05T23:15:35.858Z,99374.44
2022-10-05T23:18:02.446Z,99384.06
2022-10-05T23:20:29.102Z,99381.53
2022-10-05T23:22:55.626Z,99376.59
2022-10-05T23:25:22.322Z,99384.63
2022-10-05T23:27:49.190Z,99384.72
2022-10-05T23:30:15.787Z,99377.81
2022-10-05T23:32:44.194Z,99381.22
2022-10-05T23:35:12.573Z,99385.56
2022-10-05T23:37:41.143Z,99390.06
2022-10-05T23:40:10.509Z,99385.84
2022-10-05T23:42:37.099Z,99397.69
2022-10-05T23:45:03.913Z,99397.88
2022-10-05T23:47:30.752Z,99407.75
2022-10-05T23:49:57.267Z,99405.41
2022-10-05T23:52:25.904Z,99404.66
2022-10-05T23:54:52.476Z,99404.34
2022-10-05T23:57:19.851Z,99408.97
2022-10-05T23:59:46.555Z,99418.00
